createdAt,value
2022-11-16T00:04:01.950Z,99071.84
2022-11-16T00:09:23.476Z,99066.69
2022-11-16T00:14:30.124Z,99075.50
2022-11-16T00:19:32.950Z,99068.78
2022-11-16T00:24:35.733Z,99058.28
2022-11-16T00:29:39.944Z,99067.03
2022-11-16T00:34:43.334Z,99053.03
2022-11-16T00:39:45.912Z,99053.03
2022-11-16T00:44:50.086Z,99042.78
2022-11-16T00:49:53.371Z,99033.25
2022-11-16T00:54:56.984Z,99029.38
2022-11-16T01:00:01.328Z,99021.06
2022-11-16T01:05:07.186Z,99025.56
2022-11-16T01:10:13.289Z,99017.44
2022-11-16T01:15:21.577Z,99021.41
2022-11-16T01:20:26.253Z,99007.50
2022-11-16T01:25:29.047Z,99009.91
2022-11-16T01:30:33.206Z,98996.00
2022-11-16T01:35:43.822Z,99003.22
2022-11-16T01:40:47.855Z,98987.56
2022-11-16T01:45:55.045Z,98980.81
2022-11-16T01:50:59.099Z,98968.88
2022-11-16T01:56:05.566Z,98969.00
2022-11-16T02:01:28.587Z,98966.34
2022-11-16T02:06:59.958Z,98957.47
2022-11-16T02:12:17.337Z,98958.78
2022-11-16T02:17:33.415Z,98957.03
2022-11-16T02:22:54.744Z,98951.38
2022-11-16T02:28:14.860Z,98945.09
2022-11-16T02:33:23.573Z,98937.47
2022-11-16T02:38:29.515Z,98921.63
2022-11-16T02:43:38.999Z,98917.94
2022-11-16T02:48:48.183Z,98916.50
2022-11-16T02:54:02.712Z,98915.22
2022-11-16T02:59:06.690Z,98905.78
2022-11-16T03:04:16.243Z,98907.09
2022-11-16T03:09:24.300Z,98900.16
2022-11-16T03:14:33.883Z,98907.59
2022-11-16T03:19:42.840Z,98907.41
2022-11-16T03:24:46.247Z,98901.56
2022-11-16T03:30:00.370Z,98904.63
2022-11-16T03:35:09.947Z,98895.47
2022-11-16T03:40:15.084Z,98892.09
2022-11-16T03:45:19.676Z,98888.03
2022-11-16T03:50:26.263Z,98884.66
2022-11-16T03:55:30.019Z,98884.69
2022-11-16T04:00:34.829Z,98880.34
2022-11-16T04:06:02.718Z,98879.25
2022-11-16T04:11:23.623Z,98888.78
2022-11-16T04:16:45.133Z,98874.03
2022-11-16T04:22:11.847Z,98882.06
2022-11-16T04:27:34.210Z,98871.22
2022-11-16T04:32:55.826Z,98884.84
2022-11-16T04:38:01.028Z,98880.22
2022-11-16T04:43:08.517Z,98889.41
2022-11-16T04:48:16.767Z,98883.91
2022-11-16T04:53:22.585Z,98890.25
2022-11-16T04:58:34.323Z,98880.22
2022-11-16T05:03:37.450Z,98883.41
2022-11-16T05:08:41.723Z,98873.75
2022-11-16T05:13:46.981Z,98877.25
2022-11-16T05:19:10.299Z,98870.66
2022-11-16T05:24:32.706Z,98868.69
2022-11-16T05:29:37.650Z,98871.19
2022-11-16T05:34:41.068Z,98873.44
2022-11-16T05:39:47.786Z,98879.22
2022-11-16T05:44:51.497Z,98880.16
2022-11-16T05:49:54.432Z,98872.50
2022-11-16T05:55:00.039Z,98874.28
2022-11-16T06:00:06.411Z,98877.97
2022-11-16T06:05:17.584Z,98884.44
2022-11-16T06:10:22.928Z,98893.31
2022-11-16T06:15:27.894Z,98889.78
2022-11-16T06:20:30.791Z,98906.81
2022-11-16T06:25:35.034Z,98902.97
2022-11-16T06:30:39.464Z,98908.22
2022-11-16T06:35:43.789Z,98913.00
2022-11-16T06:40:53.826Z,98911.41
2022-11-16T06:45:58.997Z,98913.25
2022-11-16T06:51:02.014Z,98926.16
2022-11-16T06:56:07.322Z,98923.41
2022-11-16T07:01:16.509Z,98938.50
2022-11-16T07:06:21.055Z,98945.72
2022-11-16T07:11:27.707Z,98947.13
2022-11-16T07:16:30.960Z,98966.16
2022-11-16T07:21:39.473Z,98959.09
2022-11-16T07:26:49.468Z,98963.75
2022-11-16T07:31:56.222Z,98969.63
2022-11-16T07:37:21.586Z,98968.50
2022-11-16T07:42:25.724Z,98978.81
2022-11-16T07:47:54.436Z,98973.59
2022-11-16T07:53:15.872Z,98974.16
2022-11-16T07:58:20.028Z,98981.75
2022-11-16T08:03:24.799Z,98993.91
2022-11-16T08:08:30.441Z,99010.19
2022-11-16T08:13:36.788Z,99003.63
2022-11-16T08:18:41.659Z,99015.47
2022-11-16T08:23:45.871Z,99017.72
2022-11-16T08:28:53.702Z,99028.03
2022-11-16T08:34:01.445Z,99030.53
2022-11-16T08:39:05.113Z,99029.59
2022-11-16T08:44:10.289Z,99028.16
2022-11-16T08:49:15.596Z,99023.59
2022-11-16T08:54:18.702Z,99024.44
2022-11-16T08:59:23.008Z,99029.22
2022-11-16T09:04:32.756Z,99032.88
2022-11-16T09:09:38.553Z,99024.53
2022-11-16T09:14:43.081Z,99024.81
2022-11-16T09:19:45.973Z,99036.53
2022-11-16T09:24:48.755Z,99032.63
2022-11-16T09:29:52.960Z,99045.91
2022-11-16T09:34:55.821Z,99043.94
2022-11-16T09:39:58.787Z,99047.50
2022-11-16T09:45:07.726Z,99052.19
2022-11-16T09:50:23.461Z,99055.41
2022-11-16T09:55:33.393Z,99059.22
2022-11-16T10:00:38.636Z,99062.22
2022-11-16T10:05:47.565Z,99064.06
2022-11-16T10:11:00.112Z,99060.53
2022-11-16T10:16:09.689Z,99068.16
2022-11-16T10:21:40.295Z,99059.81
2022-11-16T10:26:52.190Z,99062.88
2022-11-16T10:32:08.911Z,99057.38
2022-11-16T10:37:14.321Z,99066.03
2022-11-16T10:42:21.132Z,99049.84
2022-11-16T10:47:34.165Z,99061.31
2022-11-16T10:52:37.057Z,99039.13
2022-11-16T10:57:55.727Z,99037.66
2022-11-16T11:02:59.888Z,99037.50
2022-11-16T11:08:04.515Z,99038.59
2022-11-16T11:13:21.799Z,99045.50
2022-11-16T11:18:30.205Z,99054.75
2022-11-16T11:23:41.483Z,99059.88
2022-11-16T11:28:50.772Z,99051.06
2022-11-16T11:33:58.027Z,99051.63
2022-11-16T11:39:03.716Z,99050.78
2022-11-16T11:44:15.032Z,99047.97
2022-11-16T11:49:27.990Z,99047.41
2022-11-16T11:54:45.517Z,99045.88
2022-11-16T11:59:49.791Z,99038.38
2022-11-16T12:05:34.936Z,99040.25
2022-11-16T12:10:46.121Z,99036.22
2022-11-16T12:16:02.155Z,99032.50
2022-11-16T12:21:13.832Z,99034.50
2022-11-16T12:26:27.137Z,99036.09
2022-11-16T12:31:52.615Z,99032.53
2022-11-16T12:37:05.344Z,99035.22
2022-11-16T12:42:23.188Z,99031.44
2022-11-16T12:47:38.428Z,99030.53
2022-11-16T12:53:06.611Z,99028.66
2022-11-16T12:58:20.365Z,99019.94
2022-11-16T13:03:30.504Z,99017.91
2022-11-16T13:08:40.761Z,98995.63
2022-11-16T13:13:51.493Z,99002.88
2022-11-16T13:18:56.903Z,99004.75
2022-11-16T13:24:25.587Z,98997.19
2022-11-16T13:29:35.499Z,98995.34
2022-11-16T13:34:40.366Z,98990.28
2022-11-16T13:40:15.833Z,98988.66
2022-11-16T13:45:22.580Z,98982.44
2022-11-16T13:50:36.054Z,98979.63
2022-11-16T13:55:44.154Z,98977.88
2022-11-16T14:01:01.662Z,98970.22
2022-11-16T14:06:04.864Z,98962.81
2022-11-16T14:11:30.353Z,98961.09
2022-11-16T14:16:48.647Z,98965.34
2022-11-16T14:22:01.815Z,98957.84
2022-11-16T14:27:15.964Z,98969.13
2022-11-16T14:32:22.914Z,98970.50
2022-11-16T14:37:32.336Z,98968.50
2022-11-16T14:43:09.535Z,98976.38
2022-11-16T14:48:17.000Z,98958.09
2022-11-16T14:53:21.034Z,98965.41
2022-11-16T14:58:25.171Z,98965.75
2022-11-16T15:03:31.637Z,98962.56
2022-11-16T15:08:39.530Z,98963.03
2022-11-16T15:13:46.782Z,98967.41
2022-11-16T15:19:00.604Z,98970.97
2022-11-16T15:29:28.798Z,98969.69
2022-11-16T15:34:32.290Z,98971.19
2022-11-16T15:39:37.136Z,98975.47
2022-11-16T15:44:42.076Z,98973.69
2022-11-16T15:49:49.561Z,98970.38
2022-11-16T15:55:04.775Z,98973.13
2022-11-16T16:00:23.299Z,98970.44
2022-11-16T16:05:34.435Z,98968.00
2022-11-16T16:10:37.276Z,98974.88
2022-11-16T16:15:41.616Z,98977.13
2022-11-16T16:20:48.696Z,98973.78
2022-11-16T16:25:51.492Z,98965.13
2022-11-16T16:30:55.470Z,98956.47
2022-11-16T16:35:58.205Z,98962.72
2022-11-16T16:41:02.647Z,98965.16
2022-11-16T16:46:07.357Z,98962.53
2022-11-16T16:51:12.995Z,98950.66
2022-11-16T16:56:19.207Z,98952.94
2022-11-16T17:01:23.896Z,98951.31
2022-11-16T17:06:26.767Z,98939.50
2022-11-16T17:11:29.853Z,98936.72
2022-11-16T17:16:34.432Z,98925.88
2022-11-16T17:21:37.252Z,98924.47
2022-11-16T17:26:42.235Z,98922.78
2022-11-16T17:31:47.763Z,98939.97
2022-11-16T17:36:50.542Z,98925.06
2022-11-16T17:41:53.427Z,98934.94
2022-11-16T17:46:57.596Z,98939.44
2022-11-16T17:52:01.619Z,98935.50
2022-11-16T17:57:04.555Z,98921.59
2022-11-16T18:02:11.324Z,98914.28
2022-11-16T18:07:14.199Z,98914.28
2022-11-16T18:12:16.977Z,98912.28
2022-11-16T18:17:21.109Z,98915.81
2022-11-16T18:22:24.241Z,98914.53
2022-11-16T18:27:27.190Z,98908.66
2022-11-16T18:32:33.476Z,98908.25
2022-11-16T18:37:36.294Z,98907.56
2022-11-16T18:42:39.981Z,98906.00
2022-11-16T18:47:44.092Z,98915.56
2022-11-16T18:52:46.929Z,98891.81
2022-11-16T18:57:49.832Z,98894.91
2022-11-16T19:02:53.966Z,98899.28
2022-11-16T19:07:56.807Z,98894.19
2022-11-16T19:13:00.034Z,98906.00
2022-11-16T19:18:21.315Z,98901.41
2022-11-16T19:23:24.610Z,98893.91
2022-11-16T19:28:27.360Z,98890.16
2022-11-16T19:33:31.613Z,98888.72
2022-11-16T19:38:34.447Z,98891.97
2022-11-16T19:43:37.638Z,98878.91
2022-11-16T19:48:41.930Z,98869.91
2022-11-16T19:53:44.934Z,98875.09
2022-11-16T19:58:47.848Z,98873.28
2022-11-16T20:03:52.219Z,98867.38
2022-11-16T20:08:58.409Z,98873.69
2022-11-16T20:14:01.542Z,98882.00
2022-11-16T20:19:06.333Z,98873.97
2022-11-16T20:24:12.393Z,98862.72
2022-11-16T20:29:16.962Z,98858.59
2022-11-16T20:34:22.137Z,98850.88
2022-11-16T20:39:24.999Z,98854.81
2022-11-16T20:44:27.773Z,98838.75
2022-11-16T20:49:32.003Z,98845.94
2022-11-16T20:54:34.947Z,98843.09
2022-11-16T20:59:37.799Z,98826.50
2022-11-16T21:04:41.945Z,98825.69
2022-11-16T21:10:02.607Z,98834.66
2022-11-16T21:15:06.254Z,98838.19
2022-11-16T21:20:26.906Z,98824.13
2022-11-16T21:25:30.798Z,98823.59
2022-11-16T21:30:33.350Z,98815.00
2022-11-16T21:35:37.433Z,98815.53
2022-11-16T21:40:40.205Z,98815.94
2022-11-16T21:45:43.097Z,98815.13
2022-11-16T21:50:47.240Z,98801.75
2022-11-16T21:55:50.893Z,98792.00
2022-11-16T22:00:55.949Z,98789.34
2022-11-16T22:06:20.376Z,98764.44
2022-11-16T22:11:23.124Z,98766.16
2022-11-16T22:16:25.849Z,98747.16
2022-11-16T22:21:29.764Z,98738.38
2022-11-16T22:26:32.494Z,98742.75
2022-11-16T22:31:36.081Z,98744.31
2022-11-16T22:36:40.185Z,98741.88
2022-11-16T22:41:42.993Z,98738.50
2022-11-16T22:46:45.824Z,98725.13
2022-11-16T22:51:49.903Z,98717.28
2022-11-16T22:56:52.666Z,98709.72
2022-11-16T23:01:55.410Z,98690.47
2022-11-16T23:07:00.377Z,98682.22
2022-11-16T23:12:17.047Z,98675.16
2022-11-16T23:17:19.797Z,98673.44
2022-11-16T23:22:41.160Z,98661.88
2022-11-16T23:27:47.088Z,98657.88
2022-11-16T23:32:49.851Z,98651.59
2022-11-16T23:37:55.985Z,98643.47
2022-11-16T23:43:16.665Z,98636.81
2022-11-16T23:48:20.134Z,98631.84
2022-11-16T23:53:24.218Z,98616.16
2022-11-16T23:58:26.947Z,98606.91
